createdAt,value
2019-05-11T00:02:55.311Z,4.9
2019-05-11T00:08:22.671Z,4.8
2019-05-11T00:13:49.869Z,4.8
2019-05-11T00:19:17.741Z,4.7
2019-05-11T00:24:44.509Z,4.8
2019-05-11T00:30:12.465Z,4.8
2019-05-11T00:35:41.597Z,4.7
2019-05-11T00:41:08.032Z,4.7
2019-05-11T00:46:34.915Z,4.6
2019-05-11T00:52:02.491Z,4.5
2019-05-11T00:57:29.407Z,4.4
2019-05-11T01:02:57.128Z,4.2
2019-05-11T01:08:24.861Z,4.2
2019-05-11T01:13:52.397Z,4.2
2019-05-11T01:19:19.522Z,4.2
2019-05-11T01:24:46.286Z,4.1
2019-05-11T01:30:14.111Z,4.1
2019-05-11T01:35:41.107Z,4
2019-05-11T01:41:08.445Z,4
2019-05-11T01:46:35.230Z,4
2019-05-11T01:52:02.959Z,4
2019-05-11T01:57:31.234Z,3.9
2019-05-11T02:02:57.453Z,3.9
2019-05-11T02:08:25.356Z,3.8
2019-05-11T02:13:52.722Z,3.7
2019-05-11T02:19:19.680Z,3.7
2019-05-11T02:24:47.447Z,3.6
2019-05-11T02:30:15.125Z,3.5
2019-05-11T02:35:42.866Z,3.5
2019-05-11T02:41:09.455Z,3.5
2019-05-11T02:46:37.182Z,3.4
2019-05-11T02:52:04.047Z,3.5
2019-05-11T02:57:31.855Z,3.5
2019-05-11T03:02:58.354Z,3.4
2019-05-11T03:08:25.058Z,3.4
2019-05-11T03:13:52.890Z,3.4
2019-05-11T03:19:20.158Z,3.3
2019-05-11T03:24:47.067Z,3.3
2019-05-11T03:30:16.016Z,3.2
2019-05-11T03:35:42.671Z,3.1
2019-05-11T03:41:10.671Z,3.1
2019-05-11T03:46:38.029Z,3.1
2019-05-11T03:52:05.599Z,3.1
2019-05-11T03:57:32.203Z,3.1
2019-05-11T04:03:09.212Z,3.2
2019-05-11T04:08:28.564Z,3.3
2019-05-11T04:13:55.738Z,3.3
2019-05-11T04:19:21.716Z,3.2
2019-05-11T04:24:47.644Z,3.2
2019-05-11T04:30:22.919Z,3.3
2019-05-11T04:35:43.095Z,3.5
2019-05-11T04:41:10.956Z,3.6
2019-05-11T04:46:41.836Z,3.6
2019-05-11T04:52:05.686Z,3.7
2019-05-11T04:57:32.399Z,3.7
2019-05-11T05:02:58.895Z,3.7
2019-05-11T05:08:28.015Z,3.8
2019-05-11T05:13:54.371Z,3.8
2019-05-11T05:19:21.463Z,3.9
2019-05-11T05:24:48.824Z,4
2019-05-11T05:30:17.201Z,4.1
2019-05-11T05:35:44.650Z,4.2
2019-05-11T05:41:12.044Z,4.3
2019-05-11T05:46:38.729Z,4.4
2019-05-11T05:52:05.626Z,4.6
2019-05-11T05:57:32.370Z,4.8
2019-05-11T06:02:59.179Z,5
2019-05-11T06:08:26.406Z,5.1
2019-05-11T06:13:52.925Z,5.3
2019-05-11T06:19:19.804Z,5.5
2019-05-11T06:24:48.347Z,5.8
2019-05-11T06:30:15.781Z,6
2019-05-11T06:41:11.934Z,6.4
2019-05-11T06:46:39.322Z,6.6
2019-05-11T06:52:06.420Z,6.8
2019-05-11T06:57:34.195Z,7
2019-05-11T07:03:02.226Z,7.1
2019-05-11T07:08:30.371Z,7.3
2019-05-11T07:13:57.302Z,7.5
2019-05-11T07:19:24.327Z,7.6
2019-05-11T07:24:51.371Z,7.7
2019-05-11T07:30:18.368Z,7.8
2019-05-11T07:35:47.808Z,8.1
2019-05-11T07:41:14.598Z,8.3
2019-05-11T07:46:41.700Z,8.4
2019-05-11T07:52:09.050Z,8.4
2019-05-11T07:57:35.938Z,8.3
2019-05-11T08:03:03.091Z,8.2
2019-05-11T08:08:31.086Z,8.2
2019-05-11T08:13:58.501Z,8.4
2019-05-11T08:19:27.975Z,8.5
2019-05-11T08:24:53.567Z,8.6
2019-05-11T08:30:21.478Z,8.6
2019-05-11T08:35:49.705Z,8.6
2019-05-11T08:41:18.520Z,8.6
2019-05-11T08:46:45.016Z,8.6
2019-05-11T08:52:13.180Z,8.7
2019-05-11T08:57:41.109Z,8.8
2019-05-11T09:03:08.585Z,9
2019-05-11T09:08:35.440Z,9.2
2019-05-11T09:14:02.622Z,9.4
2019-05-11T09:19:30.885Z,9.6
2019-05-11T09:24:58.329Z,9.7
2019-05-11T09:30:25.358Z,9.8
2019-05-11T09:41:20.816Z,10
2019-05-11T09:46:48.157Z,10.1
2019-05-11T09:52:18.315Z,10.1
2019-05-11T09:57:44.618Z,10.1
2019-05-11T10:03:12.039Z,10.2
2019-05-11T10:08:39.327Z,10.4
2019-05-11T10:14:08.307Z,10.5
2019-05-11T10:19:34.814Z,10.7
2019-05-11T10:25:02.486Z,10.8
2019-05-11T10:30:30.484Z,10.9
2019-05-11T10:36:02.502Z,11
2019-05-11T10:41:28.168Z,11
2019-05-11T10:46:54.583Z,11.1
2019-05-11T10:52:22.892Z,11.2
2019-05-11T10:57:50.316Z,11.4
2019-05-11T11:03:18.867Z,11.5
2019-05-11T11:08:48.329Z,11.5
2019-05-11T11:14:13.519Z,11.5
2019-05-11T11:19:41.938Z,11.6
2019-05-11T11:25:09.315Z,11.7
2019-05-11T11:30:37.834Z,11.9
2019-05-11T11:36:05.182Z,12
2019-05-11T11:41:33.738Z,12.1
2019-05-11T11:47:02.211Z,12.2
2019-05-11T11:52:29.767Z,12.3
2019-05-11T11:57:58.813Z,12.3
2019-05-11T12:03:24.583Z,12.4
2019-05-11T12:08:53.074Z,12.5
2019-05-11T12:14:20.529Z,12.5
2019-05-11T12:19:49.005Z,12.6
2019-05-11T12:25:32.576Z,12.7
2019-05-11T12:30:45.122Z,12.8
2019-05-11T12:36:12.612Z,12.8
2019-05-11T12:41:40.195Z,12.9
2019-05-11T12:47:20.903Z,12.9
2019-05-11T12:52:35.203Z,13
2019-05-11T12:58:02.780Z,13.1
2019-05-11T13:03:31.700Z,13.2
2019-05-11T13:08:58.890Z,13.2
2019-05-11T13:14:27.682Z,13.1
2019-05-11T13:19:53.912Z,12.9
2019-05-11T13:25:22.852Z,12.9
2019-05-11T13:36:18.865Z,13.3
2019-05-11T13:41:47.560Z,13.4
2019-05-11T13:47:14.769Z,13.5
2019-05-11T13:52:42.418Z,13.5
2019-05-11T13:58:09.965Z,13.7
2019-05-11T14:03:38.653Z,13.8
2019-05-11T14:09:07.773Z,13.8
2019-05-11T14:14:34.824Z,13.9
2019-05-11T14:20:03.088Z,14
2019-05-11T14:25:30.225Z,14
2019-05-11T14:30:58.796Z,14.1
2019-05-11T14:36:28.379Z,14.1
2019-05-11T14:41:55.114Z,13.9
2019-05-11T14:47:23.023Z,13.7
2019-05-11T14:52:51.261Z,13.6
2019-05-11T14:58:19.940Z,13.6
2019-05-11T15:03:48.548Z,13.6
2019-05-11T15:09:18.088Z,13.6
2019-05-11T15:14:43.757Z,13.6
2019-05-11T15:20:12.722Z,13.7
2019-05-11T15:25:38.962Z,13.7
2019-05-11T15:31:08.008Z,13.6
2019-05-11T15:36:35.133Z,13.6
2019-05-11T15:42:09.740Z,13.6
2019-05-11T15:47:37.697Z,13.5
2019-05-11T15:52:59.971Z,13.5
2019-05-11T15:58:29.017Z,13.4
2019-05-11T16:03:58.149Z,13.4
2019-05-11T16:09:24.667Z,13.3
2019-05-11T16:14:52.284Z,13.3
2019-05-11T16:20:20.866Z,13.2
2019-05-11T16:25:49.372Z,13.1
2019-05-11T16:31:17.925Z,13.1
2019-05-11T16:36:44.635Z,13
2019-05-11T16:42:13.080Z,12.9
2019-05-11T16:47:41.602Z,12.8
2019-05-11T16:53:09.068Z,12.8
2019-05-11T16:58:40.795Z,12.7
2019-05-11T17:04:06.129Z,12.5
2019-05-11T17:09:33.656Z,12.4
2019-05-11T17:15:01.136Z,12.3
2019-05-11T17:20:29.623Z,12.1
2019-05-11T17:25:57.833Z,12
2019-05-11T17:31:25.516Z,11.8
2019-05-11T17:36:52.910Z,11.7
2019-05-11T17:42:21.365Z,11.6
2019-05-11T17:47:49.748Z,11.5
2019-05-11T17:53:18.206Z,11.4
2019-05-11T17:58:45.568Z,11.3
2019-05-11T18:04:13.935Z,11.1
2019-05-11T18:09:42.084Z,11
2019-05-11T18:15:09.604Z,10.9
2019-05-11T18:20:38.193Z,10.8
2019-05-11T18:26:08.613Z,10.6
2019-05-11T18:31:34.580Z,10.5
2019-05-11T18:37:02.185Z,10.4
2019-05-11T18:42:29.329Z,10.3
2019-05-11T18:47:57.442Z,10.2
2019-05-11T18:53:24.760Z,10.1
2019-05-11T18:58:52.042Z,10
2019-05-11T19:04:20.404Z,9.9
2019-05-11T19:09:48.932Z,9.8
2019-05-11T19:15:18.675Z,9.6
2019-05-11T19:20:45.990Z,9.5
2019-05-11T19:26:12.208Z,9.4
2019-05-11T19:31:40.426Z,9.3
2019-05-11T19:37:08.745Z,9.2
2019-05-11T19:42:37.851Z,9.1
2019-05-11T19:48:02.933Z,9
2019-05-11T19:53:31.118Z,9
2019-05-11T19:58:58.467Z,8.9
2019-05-11T20:04:28.301Z,8.8
2019-05-11T20:09:56.678Z,8.6
2019-05-11T20:15:22.808Z,8.6
2019-05-11T20:20:50.844Z,8.5
2019-05-11T20:26:18.124Z,8.4
2019-05-11T20:31:46.134Z,8.3
2019-05-11T20:37:14.168Z,8.2
2019-05-11T20:48:09.850Z,8.1
2019-05-11T20:53:38.701Z,8
2019-05-11T20:59:04.502Z,7.9
2019-05-11T21:04:32.550Z,7.8
2019-05-11T21:10:01.098Z,7.7
2019-05-11T21:15:28.229Z,7.7
2019-05-11T21:20:57.655Z,7.6
2019-05-11T21:26:22.816Z,7.5
2019-05-11T21:31:50.956Z,7.4
2019-05-11T21:37:18.289Z,7.3
2019-05-11T21:42:47.601Z,7.3
2019-05-11T21:48:13.532Z,7.2
2019-05-11T21:53:40.110Z,7.1
2019-05-11T21:59:07.915Z,7.1
2019-05-11T22:04:35.082Z,7.1
2019-05-11T22:10:03.031Z,7.1
2019-05-11T22:15:30.918Z,7.2
2019-05-11T22:20:57.883Z,7.2
2019-05-11T22:26:24.039Z,7.2
2019-05-11T22:31:51.141Z,7.2
2019-05-11T22:37:19.456Z,7.2
2019-05-11T22:42:47.193Z,7.1
2019-05-11T22:48:15.060Z,7.1
2019-05-11T22:53:47.194Z,7.1
2019-05-11T22:59:10.152Z,7
2019-05-11T23:04:38.295Z,6.9
2019-05-11T23:10:05.552Z,6.9
2019-05-11T23:15:32.975Z,6.8
2019-05-11T23:20:59.975Z,6.8
2019-05-11T23:26:28.243Z,6.7
2019-05-11T23:31:58.222Z,6.7
2019-05-11T23:37:23.952Z,6.7
2019-05-11T23:42:51.501Z,6.6
2019-05-11T23:48:17.877Z,6.6
2019-05-11T23:53:44.879Z,6.5
2019-05-11T23:59:12.938Z,6.5
